Time;durP1;ratioP1;P1;durP2;ratioP2;P2;SDS_P1;SDS_P2;PMS_P1;PMS_P2;Temp;Humidity;BMP_temperature;BMP_pressure;BME280_temperature;BME280_humidity;BME280_pressure;Samples;Min_cycle;Max_cycle;Signal;HPM_P1;HPM_P2
2023/07/08 00:00:43;;;;;;;26.55;8.27;;;;;;;23.87;51.65;101217.44;4973084;28;20459;-75
2023/07/08 00:03:09;;;;;;;26.92;8.30;;;;;;;23.77;52.02;101204.56;4992184;28;20413;-76
2023/07/08 00:05:35;;;;;;;28.33;8.60;;;;;;;23.74;51.97;101205.03;4993604;28;20428;-75
2023/07/08 00:08:01;;;;;;;28.65;9.05;;;;;;;23.63;52.21;101203.22;4993399;28;20824;-75
2023/07/08 00:10:28;;;;;;;24.73;8.30;;;;;;;23.72;51.90;101207.16;4993671;28;20469;-75
2023/07/08 00:12:57;;;;;;;29.70;8.68;;;;;;;23.74;51.76;101201.50;4993552;28;20846;-75
2023/07/08 00:15:34;;;;;;;27.75;8.80;;;;;;;23.68;51.82;101197.91;4993518;28;20867;-75
2023/07/08 00:18:00;;;;;;;31.63;8.98;;;;;;;23.65;52.18;101192.97;4993366;28;20732;-74
2023/07/08 00:20:36;;;;;;;34.67;9.10;;;;;;;23.80;51.75;101189.72;4993364;28;20481;-74
2023/07/08 00:23:02;;;;;;;26.65;7.82;;;;;;;23.78;51.57;101192.63;4992956;28;20414;-75
2023/07/08 00:25:29;;;;;;;26.67;7.90;;;;;;;23.63;51.82;101189.69;4993333;28;20456;-74
2023/07/08 00:27:54;;;;;;;28.45;8.23;;;;;;;23.69;51.88;101193.31;4993726;28;20722;-75
2023/07/08 00:30:24;;;;;;;27.33;7.67;;;;;;;23.90;51.55;101195.31;4993429;28;20397;-75
2023/07/08 00:32:53;;;;;;;27.58;7.70;;;;;;;23.92;51.16;101190.44;4993251;28;20389;-75
2023/07/08 00:35:25;;;;;;;28.83;8.30;;;;;;;23.99;51.23;101191.09;4993161;28;20469;-75
2023/07/08 00:37:52;;;;;;;28.27;8.15;;;;;;;23.85;51.31;101182.50;4992891;28;20390;-75
2023/07/08 00:40:21;;;;;;;27.65;7.95;;;;;;;23.81;51.25;101188.66;4993193;28;20388;-75
2023/07/08 00:42:48;;;;;;;28.73;8.30;;;;;;;23.61;51.68;101181.00;4993150;28;20401;-74
2023/07/08 00:45:29;;;;;;;32.50;8.43;;;;;;;23.55;51.86;101180.09;4992952;28;20460;-74
2023/07/08 00:47:59;;;;;;;29.10;8.25;;;;;;;23.54;52.00;101180.34;4992929;28;20401;-74
2023/07/08 00:50:25;;;;;;;27.30;7.83;;;;;;;23.54;51.87;101167.63;4992878;28;20381;-76
2023/07/08 00:53:27;;;;;;;23.98;7.22;;;;;;;23.46;51.81;101166.16;4992959;28;20397;-74
2023/07/08 00:55:57;;;;;;;32.25;8.70;;;;;;;23.48;52.02;101176.75;4992747;28;20477;-75
2023/07/08 00:58:25;;;;;;;25.58;7.45;;;;;;;23.29;52.33;101168.81;4993116;28;20444;-74
2023/07/08 01:00:53;;;;;;;24.40;7.50;;;;;;;23.28;52.77;101172.63;4992776;28;20731;-74
2023/07/08 01:03:20;;;;;;;25.92;7.32;;;;;;;23.32;52.45;101177.53;4992634;28;20406;-74
2023/07/08 01:05:52;;;;;;;31.87;8.07;;;;;;;23.26;52.72;101174.75;4991445;28;21383;-74
2023/07/08 01:08:17;;;;;;;30.17;8.20;;;;;;;23.31;52.40;101182.13;4992534;28;20481;-74
2023/07/08 01:10:48;;;;;;;33.65;8.25;;;;;;;23.37;52.36;101175.75;4992595;28;20500;-74
2023/07/08 01:13:16;;;;;;;28.17;8.15;;;;;;;23.43;52.25;101176.66;4992452;28;20755;-74
2023/07/08 01:15:45;;;;;;;25.88;7.38;;;;;;;23.42;52.29;101180.41;4992499;28;20414;-74
2023/07/08 01:18:16;;;;;;;27.83;7.73;;;;;;;23.24;52.56;101162.50;4992433;28;20413;-74
2023/07/08 01:20:42;;;;;;;28.77;7.87;;;;;;;23.18;52.48;101163.50;4992360;28;20719;-74
2023/07/08 01:23:11;;;;;;;20.45;6.63;;;;;;;22.97;53.10;101170.38;4992670;28;20397;-75
2023/07/08 01:25:37;;;;;;;23.92;7.18;;;;;;;22.95;53.15;101181.44;4992717;28;20433;-75
2023/07/08 01:28:03;;;;;;;23.95;7.15;;;;;;;22.95;53.46;101175.22;4992838;28;20413;-75
2023/07/08 01:30:30;;;;;;;25.65;7.20;;;;;;;23.02;52.93;101184.00;4975513;28;20393;-75
2023/07/08 01:33:00;;;;;;;31.95;7.57;;;;;;;23.00;53.03;101175.31;4992131;28;20392;-74
2023/07/08 01:35:26;;;;;;;23.53;6.93;;;;;;;23.00;53.06;101180.72;4991800;28;20798;-73
2023/07/08 01:37:57;;;;;;;27.02;7.45;;;;;;;22.86;53.21;101180.97;4991962;28;20422;-74
2023/07/08 01:40:32;;;;;;;25.88;6.95;;;;;;;22.77;53.91;101185.13;4992329;28;20393;-74
2023/07/08 01:42:59;;;;;;;24.40;6.90;;;;;;;22.71;53.93;101180.69;4991961;28;20402;-74
2023/07/08 01:45:29;;;;;;;23.25;6.63;;;;;;;22.67;53.95;101179.50;4992381;28;20452;-74
2023/07/08 01:48:02;;;;;;;27.63;7.35;;;;;;;22.63;53.83;101173.78;4992894;28;20807;-74
2023/07/08 01:50:29;;;;;;;26.38;7.00;;;;;;;22.67;53.98;101184.91;4991563;28;20386;-74
2023/07/08 01:52:58;;;;;;;25.05;6.53;;;;;;;22.66;53.89;101177.88;4992212;28;20421;-74
2023/07/08 01:55:25;;;;;;;28.15;7.07;;;;;;;22.66;53.67;101183.28;4991899;28;20868;-74
2023/07/08 01:57:52;;;;;;;26.52;6.88;;;;;;;22.69;53.53;101191.75;4991785;28;20378;-74
2023/07/08 02:00:18;;;;;;;28.13;6.97;;;;;;;22.69;53.37;101180.94;4991614;28;20385;-74
2023/07/08 02:02:44;;;;;;;26.77;6.93;;;;;;;22.84;52.98;101188.53;4991574;28;20404;-74
2023/07/08 02:05:10;;;;;;;25.80;6.70;;;;;;;22.78;53.13;101172.44;4991200;28;20417;-74
2023/07/08 02:07:35;;;;;;;25.52;6.47;;;;;;;22.77;52.95;101171.63;4989865;28;20409;-74
2023/07/08 02:10:01;;;;;;;23.03;6.13;;;;;;;22.82;52.64;101181.72;4972472;28;20384;-74
2023/07/08 02:12:26;;;;;;;24.85;6.55;;;;;;;22.79;53.10;101174.91;4971987;28;20402;-74
2023/07/08 02:14:52;;;;;;;30.60;8.07;;;;;;;22.80;53.11;101186.56;4974043;28;20407;-74
2023/07/08 02:17:17;;;;;;;27.05;6.60;;;;;;;22.74;52.99;101187.50;4979321;28;20782;-75
2023/07/08 02:19:44;;;;;;;28.73;6.80;;;;;;;22.70;53.13;101184.44;4994800;28;20414;-74
2023/07/08 02:22:10;;;;;;;26.55;6.90;;;;;;;22.69;53.11;101191.75;4980891;28;20711;-74
2023/07/08 02:24:35;;;;;;;23.58;6.65;;;;;;;22.67;52.91;101185.75;4981425;28;20921;-74
2023/07/08 02:27:01;;;;;;;28.23;7.03;;;;;;;22.81;52.96;101193.59;4983340;28;20465;-74
2023/07/08 02:29:27;;;;;;;21.20;5.97;;;;;;;22.68;53.04;101190.09;4989423;28;20388;-74
2023/07/08 02:31:52;;;;;;;25.90;6.50;;;;;;;22.61;52.96;101200.22;4989093;28;20381;-75
2023/07/08 02:34:18;;;;;;;25.92;6.55;;;;;;;22.61;53.05;101204.81;5002483;28;20882;-75
2023/07/08 02:36:44;;;;;;;23.90;6.37;;;;;;;22.50;53.19;101201.06;4987701;28;20389;-74
2023/07/08 02:39:10;;;;;;;23.35;6.35;;;;;;;22.53;53.30;101209.50;4989215;28;20412;-75
2023/07/08 02:41:37;;;;;;;25.33;6.03;;;;;;;22.52;53.36;101209.75;4990420;28;20456;-75
2023/07/08 02:44:02;;;;;;;24.98;5.90;;;;;;;22.58;52.94;101216.91;4987992;28;20420;-74
2023/07/08 02:46:27;;;;;;;26.73;6.40;;;;;;;22.53;53.18;101219.50;4990668;28;20399;-74
2023/07/08 02:48:53;;;;;;;27.43;6.53;;;;;;;22.62;53.04;101226.19;4990265;28;20389;-74
2023/07/08 02:51:18;;;;;;;20.47;5.60;;;;;;;22.62;52.86;101223.47;4990504;28;20486;-74
2023/07/08 02:53:44;;;;;;;25.45;6.07;;;;;;;22.58;52.97;101219.63;4990888;28;20388;-74
2023/07/08 02:56:09;;;;;;;29.93;7.40;;;;;;;22.68;52.53;101236.03;4990524;28;20900;-74
2023/07/08 02:58:35;;;;;;;29.90;6.33;;;;;;;;;;4990143;28;20386;-74
2023/07/08 03:01:01;;;;;;;26.65;6.38;;;;;;;22.53;52.94;101238.41;4990788;28;20417;-74
2023/07/08 03:03:30;;;;;;;21.17;5.77;;;;;;;22.55;52.98;101243.59;4989558;28;20451;-74
2023/07/08 03:06:02;;;;;;;22.90;5.70;;;;;;;22.50;52.76;101249.69;4991358;28;20445;-74
2023/07/08 03:08:27;;;;;;;20.98;5.32;;;;;;;22.51;52.69;101248.66;4991031;28;20468;-74
2023/07/08 03:11:01;;;;;;;19.40;5.47;;;;;;;22.50;52.76;101261.31;4991023;28;20807;-75
2023/07/08 03:13:28;;;;;;;20.60;5.75;;;;;;;22.49;52.78;101258.84;4991019;28;20484;-75
2023/07/08 03:15:57;;;;;;;21.40;5.57;;;;;;;22.49;52.67;101253.44;4991053;28;20775;-75
2023/07/08 03:18:26;;;;;;;21.87;5.37;;;;;;;22.52;52.78;101256.50;4991027;28;20401;-75
2023/07/08 03:20:53;;;;;;;19.58;5.97;;;;;;;22.61;52.61;101258.84;4973882;28;20413;-75
2023/07/08 03:23:18;;;;;;;15.73;4.75;;;;;;;22.57;52.63;101254.97;4991233;28;20401;-75
2023/07/08 03:25:44;;;;;;;17.77;4.97;;;;;;;22.65;52.34;101266.25;4991563;28;20595;-75
2023/07/08 03:28:14;;;;;;;17.87;5.20;;;;;;;22.68;52.37;101254.13;4989920;28;20874;-75
2023/07/08 03:30:40;;;;;;;17.52;5.53;;;;;;;;;;4988283;28;20460;-75
2023/07/08 03:33:06;;;;;;;18.45;5.18;;;;;;;22.70;52.40;101265.53;4988403;28;20413;-75
2023/07/08 03:35:31;;;;;;;16.57;5.40;;;;;;;22.86;52.04;101272.09;4971316;28;20767;-76
2023/07/08 03:37:57;;;;;;;19.70;5.30;;;;;;;22.94;52.00;101262.78;4990633;28;20393;-76
2023/07/08 03:40:22;;;;;;;16.03;4.67;;;;;;;23.03;51.74;101270.28;4991514;28;20763;-75
2023/07/08 03:42:48;;;;;;;26.40;5.70;;;;;;;23.21;51.87;101263.91;4993817;28;20499;-77
2023/07/08 03:45:13;;;;;;;24.57;5.80;;;;;;;23.55;51.16;101268.56;4993483;28;20401;-76
2023/07/08 03:47:38;;;;;;;23.80;5.60;;;;;;;23.62;50.89;101272.78;4993894;28;20404;-76
2023/07/08 03:50:05;;;;;;;23.57;5.50;;;;;;;23.62;50.56;101278.19;4994349;28;20680;-76
2023/07/08 03:52:31;;;;;;;19.05;4.97;;;;;;;23.63;50.29;101276.31;4993215;28;20421;-76
2023/07/08 03:54:56;;;;;;;17.85;5.05;;;;;;;23.68;50.42;101262.88;4994507;28;20503;-76
2023/07/08 03:57:22;;;;;;;15.90;4.83;;;;;;;23.81;50.18;101267.19;4994571;28;20398;-75
2023/07/08 03:59:47;;;;;;;16.53;4.87;;;;;;;23.91;49.88;101261.91;4994469;28;20396;-76
2023/07/08 04:02:13;;;;;;;16.75;4.47;;;;;;;23.96;49.83;101266.59;4992335;28;20471;-75
2023/07/08 04:04:38;;;;;;;21.73;5.10;;;;;;;23.99;49.52;101258.81;4993848;28;20425;-75
2023/07/08 04:07:05;;;;;;;18.83;4.72;;;;;;;24.15;49.31;101268.00;4991957;28;20938;-76
2023/07/08 04:09:30;;;;;;;21.67;4.95;;;;;;;24.19;49.40;101277.25;4993920;28;20705;-75
2023/07/08 04:11:57;;;;;;;18.03;4.83;;;;;;;24.18;49.15;101264.81;4992914;28;20862;-75
2023/07/08 04:14:23;;;;;;;17.75;4.93;;;;;;;24.35;49.05;101274.78;4993172;28;20397;-75
2023/07/08 04:16:54;;;;;;;18.67;4.77;;;;;;;24.23;49.16;101266.75;4993788;28;20421;-75
2023/07/08 04:19:22;;;;;;;18.48;4.50;;;;;;;24.44;49.05;101270.59;4993714;28;20381;-76
2023/07/08 04:21:48;;;;;;;17.10;4.38;;;;;;;24.51;48.61;101267.72;4993935;28;20886;-76
2023/07/08 04:24:15;;;;;;;19.07;4.63;;;;;;;24.46;48.61;101271.16;4993361;28;20415;-76
2023/07/08 04:26:40;;;;;;;17.88;4.65;;;;;;;24.46;48.64;101271.16;4992808;28;20390;-76
2023/07/08 04:29:11;;;;;;;20.80;4.97;;;;;;;24.75;48.53;101273.75;4992973;28;20838;-76
2023/07/08 04:31:37;;;;;;;17.63;4.30;;;;;;;24.97;48.11;101265.59;4993936;28;20418;-76
2023/07/08 04:34:02;;;;;;;17.65;4.53;;;;;;;25.14;47.70;101271.78;4992265;28;20430;-75
2023/07/08 04:36:28;;;;;;;17.47;4.47;;;;;;;25.40;47.33;101263.13;4992731;28;20400;-75
2023/07/08 04:38:53;;;;;;;17.33;4.40;;;;;;;25.24;47.07;101265.66;4993321;28;20398;-75
2023/07/08 04:41:19;;;;;;;20.93;4.80;;;;;;;25.17;47.43;101249.59;4992917;28;20855;-75
2023/07/08 04:43:44;;;;;;;24.63;5.45;;;;;;;25.38;47.06;101266.91;4992844;28;20530;-76
2023/07/08 04:46:22;;;;;;;15.30;4.60;;;;;;;25.35;47.21;101264.72;4993262;28;20390;-75
2023/07/08 04:48:48;;;;;;;18.00;4.53;;;;;;;25.67;46.78;101268.53;4992702;28;20846;-75
2023/07/08 04:51:13;;;;;;;22.17;4.72;;;;;;;25.71;46.71;101270.50;4993316;28;20406;-75
2023/07/08 04:53:39;;;;;;;20.08;5.18;;;;;;;25.74;46.32;101264.53;4993230;28;20827;-75
2023/07/08 04:56:04;;;;;;;14.03;4.00;;;;;;;25.86;46.41;101260.84;4993285;28;20429;-75
2023/07/08 04:58:30;;;;;;;20.02;4.70;;;;;;;25.89;45.94;101266.59;4980594;28;20478;-75
2023/07/08 05:00:55;;;;;;;16.97;4.20;;;;;;;25.92;45.62;101273.38;4976224;28;20380;-74
2023/07/08 05:03:21;;;;;;;21.73;4.53;;;;;;;25.91;45.54;101272.56;4992630;28;20485;-74
2023/07/08 05:05:46;;;;;;;20.00;4.40;;;;;;;25.92;45.25;101278.81;4992182;28;20419;-73
2023/07/08 05:08:12;;;;;;;23.70;4.93;;;;;;;25.96;45.00;101277.25;4986791;28;20877;-74
2023/07/08 05:10:38;;;;;;;17.60;4.13;;;;;;;25.70;45.02;101284.34;4986249;28;20400;-77
2023/07/08 05:13:04;;;;;;;20.73;4.47;;;;;;;25.85;44.86;101283.63;4992213;28;20465;-76
2023/07/08 05:15:30;;;;;;;18.15;4.57;;;;;;;25.93;44.90;101281.31;4992058;28;20484;-76
2023/07/08 05:17:55;;;;;;;13.37;3.57;;;;;;;25.87;44.82;101286.91;4992358;28;20886;-76
2023/07/08 05:20:22;;;;;;;18.07;4.23;;;;;;;26.06;44.47;101290.91;4992073;28;20398;-74
2023/07/08 05:22:48;;;;;;;19.10;3.92;;;;;;;26.01;44.45;101300.91;4992130;28;20445;-74
2023/07/08 05:25:14;;;;;;;21.10;4.37;;;;;;;25.90;44.44;101299.97;4993510;28;20428;-75
2023/07/08 05:27:40;;;;;;;11.98;3.58;;;;;;;25.92;44.75;101301.34;4991428;28;20870;-74
2023/07/08 05:32:53;;;;;;;13.93;3.53;;;;;;;25.97;44.75;101299.81;4992817;28;20417;-76
2023/07/08 05:35:19;;;;;;;15.05;3.78;;;;;;;26.31;44.49;101286.75;4992032;28;20898;-77
2023/07/08 05:37:46;;;;;;;14.38;3.58;;;;;;;26.45;44.19;101290.66;4976505;28;20869;-76
2023/07/08 05:40:12;;;;;;;10.80;3.40;;;;;;;26.41;44.44;101300.38;4993072;28;20378;-77
2023/07/08 05:42:38;;;;;;;13.43;3.17;;;;;;;26.65;44.18;101308.16;4993691;28;20839;-76
2023/07/08 05:45:06;;;;;;;14.70;3.37;;;;;;;26.25;44.37;101318.50;4992437;28;20386;-76
2023/07/08 05:47:32;;;;;;;12.63;2.95;;;;;;;26.13;44.66;101310.53;4992481;28;20381;-76
2023/07/08 05:49:57;;;;;;;15.87;4.03;;;;;;;26.31;44.69;101312.03;4992016;28;20393;-76
2023/07/08 05:52:23;;;;;;;16.38;3.72;;;;;;;26.33;44.23;101309.84;4991699;28;20414;-75
2023/07/08 05:54:48;;;;;;;10.63;3.03;;;;;;;26.26;44.45;101311.97;4991802;28;20542;-77
2023/07/08 05:57:14;;;;;;;15.30;3.73;;;;;;;26.42;44.31;101318.34;4991634;28;20408;-76
2023/07/08 05:59:39;;;;;;;12.27;3.53;;;;;;;26.79;44.53;101317.50;4991342;28;20374;-77
2023/07/08 06:02:06;;;;;;;12.90;3.37;;;;;;;26.84;43.45;101322.97;4992200;28;20897;-77
2023/07/08 06:04:32;;;;;;;14.00;3.08;;;;;;;26.62;43.75;101311.44;4991305;28;20491;-77
2023/07/08 06:06:57;;;;;;;15.45;3.28;;;;;;;26.37;44.19;101312.88;4992055;28;20393;-76
2023/07/08 06:09:23;;;;;;;17.70;3.90;;;;;;;26.45;44.72;101300.69;4992923;28;20530;-76
2023/07/08 06:11:48;;;;;;;16.50;3.57;;;;;;;26.54;43.76;101304.53;4992852;28;20385;-77
2023/07/08 06:14:14;;;;;;;14.60;2.83;;;;;;;26.51;43.14;101314.06;4993676;28;20380;-75
2023/07/08 06:16:39;;;;;;;15.23;3.00;;;;;;;26.06;43.87;101312.66;4992859;28;20389;-74
2023/07/08 06:19:05;;;;;;;11.35;3.20;;;;;;;26.27;44.35;101321.78;4974965;28;20846;-76
2023/07/08 06:21:31;;;;;;;12.93;3.15;;;;;;;26.33;43.85;101312.56;4992045;28;20417;-76
2023/07/08 06:23:56;;;;;;;12.98;3.13;;;;;;;26.51;43.49;101313.25;4973976;28;20466;-76
2023/07/08 06:26:23;;;;;;;14.87;2.83;;;;;;;26.72;42.52;101325.06;4983905;28;20865;-76
2023/07/08 06:28:49;;;;;;;13.88;3.08;;;;;;;26.78;43.08;101318.59;4989804;28;20378;-76
2023/07/08 06:31:14;;;;;;;8.83;2.33;;;;;;;26.56;43.54;101318.72;4972339;28;20399;-76
2023/07/08 06:33:40;;;;;;;18.05;3.25;;;;;;;26.96;42.43;101336.38;4974728;28;20383;-75
2023/07/08 06:36:06;;;;;;;18.05;3.15;;;;;;;26.51;43.15;101314.06;4972249;28;20745;-75
2023/07/08 06:38:32;;;;;;;11.35;2.70;;;;;;;26.41;43.31;101318.59;4977289;28;20402;-76
2023/07/08 06:40:57;;;;;;;10.13;2.33;;;;;;;26.24;43.46;101330.44;4984982;28;20386;-75
2023/07/08 06:43:23;;;;;;;15.35;3.10;;;;;;;26.44;43.56;101326.25;4959441;28;21031;-76
2023/07/08 06:45:48;;;;;;;15.18;2.85;;;;;;;26.15;43.55;101325.75;4979582;28;20808;-76
2023/07/08 06:48:14;;;;;;;14.63;3.27;;;;;;;26.30;43.82;101334.03;4991767;28;20392;-77
2023/07/08 06:50:43;;;;;;;15.50;3.10;;;;;;;26.55;42.76;101321.69;4991498;28;20444;-75
2023/07/08 06:53:08;;;;;;;14.82;2.85;;;;;;;26.43;42.68;101322.69;4991854;28;20385;-75
2023/07/08 06:55:34;;;;;;;14.03;2.97;;;;;;;26.41;43.44;101330.28;4991812;28;20373;-76
2023/07/08 06:57:59;;;;;;;12.23;2.90;;;;;;;26.65;43.22;101330.75;4991421;28;20392;-75
2023/07/08 07:00:25;;;;;;;12.27;2.80;;;;;;;26.81;42.36;101334.38;4991712;28;20396;-75
2023/07/08 07:02:50;;;;;;;12.37;2.90;;;;;;;26.79;42.34;101324.84;4990448;28;20763;-75
2023/07/08 07:05:15;;;;;;;13.18;2.78;;;;;;;26.52;42.87;101323.03;4979324;28;20418;-75
2023/07/08 07:07:41;;;;;;;10.13;2.97;;;;;;;26.96;42.40;101333.63;4972500;28;20433;-75
2023/07/08 07:10:07;;;;;;;12.93;2.97;;;;;;;27.03;42.30;101336.13;4975120;28;20426;-76
2023/07/08 07:12:34;;;;;;;12.40;2.72;;;;;;;27.01;42.17;101330.94;4976035;28;20391;-76
2023/07/08 07:14:59;;;;;;;15.38;3.25;;;;;;;27.28;41.91;101321.84;4995762;28;20402;-75
2023/07/08 07:17:26;;;;;;;15.07;3.65;;;;;;;27.62;41.68;101327.63;4977343;28;20480;-75
2023/07/08 07:19:53;;;;;;;12.43;3.50;;;;;;;27.78;41.24;101331.16;4978037;28;20402;-76
2023/07/08 07:22:19;;;;;;;9.70;2.75;;;;;;;27.61;40.65;101327.91;4995514;28;20472;-76
2023/07/08 07:24:44;;;;;;;10.27;2.83;;;;;;;27.75;40.60;101339.06;4995205;28;21130;-76
2023/07/08 07:27:10;;;;;;;10.23;2.80;;;;;;;27.69;40.63;101342.88;4995722;28;20392;-75
2023/07/08 07:29:44;;;;;;;7.70;3.53;;;;;;;27.67;40.72;101345.88;4995633;28;20377;-75
2023/07/08 07:32:11;;;;;;;12.60;2.97;;;;;;;27.61;40.60;101355.94;4995059;28;20385;-76
2023/07/08 07:34:38;;;;;;;9.93;2.90;;;;;;;27.81;40.10;101351.63;4987591;28;20383;-74
2023/07/08 07:37:03;;;;;;;9.20;2.40;;;;;;;28.05;39.98;101353.84;4958462;28;20849;-76
2023/07/08 07:39:29;;;;;;;11.00;3.35;;;;;;;27.65;40.73;101343.41;4976997;28;20394;-76
2023/07/08 07:41:54;;;;;;;12.20;3.03;;;;;;;27.68;39.97;101342.06;4980829;28;20397;-76
2023/07/08 07:44:20;;;;;;;11.77;2.87;;;;;;;27.52;40.11;101348.56;4994877;28;20500;-74
2023/07/08 07:46:46;;;;;;;6.43;2.63;;;;;;;27.83;39.92;101350.25;4995749;28;20779;-79
2023/07/08 07:49:12;;;;;;;10.90;3.03;;;;;;;27.97;39.82;101352.50;4995421;28;20929;-75
2023/07/08 07:51:38;;;;;;;14.13;3.90;;;;;;;28.29;38.83;101351.38;4994572;28;20401;-75
2023/07/08 07:54:03;;;;;;;11.60;3.13;;;;;;;28.40;38.56;101342.94;4995598;28;20383;-75
2023/07/08 07:56:28;;;;;;;9.67;3.40;;;;;;;28.48;38.67;101344.28;4995944;28;20821;-75
2023/07/08 07:58:54;;;;;;;7.40;2.53;;;;;;;28.55;38.63;101336.66;4995704;28;20385;-75
2023/07/08 08:01:19;;;;;;;8.13;2.87;;;;;;;28.74;38.99;101334.16;4994867;28;20393;-75
2023/07/08 08:03:45;;;;;;;11.63;2.88;;;;;;;28.73;38.42;101339.91;4995343;28;20425;-75
2023/07/08 08:06:11;;;;;;;12.45;3.30;;;;;;;28.72;38.43;101336.34;4994332;28;20898;-75
2023/07/08 08:08:36;;;;;;;13.07;3.30;;;;;;;28.52;38.54;101337.19;4985208;28;20383;-76
2023/07/08 08:11:02;;;;;;;12.10;3.27;;;;;;;29.04;38.05;101326.16;4973109;28;20387;-76
2023/07/08 08:13:27;;;;;;;8.47;2.50;;;;;;;28.91;37.21;101333.03;4991819;28;20477;-75
2023/07/08 08:15:57;;;;;;;11.77;3.00;;;;;;;28.59;37.93;101345.09;4993983;28;20410;-75
2023/07/08 08:18:23;;;;;;;11.55;3.50;;;;;;;28.54;38.80;101336.94;4993874;28;20386;-76
2023/07/08 08:20:50;;;;;;;10.33;2.93;;;;;;;28.69;38.23;101319.72;4993235;28;20385;-76
2023/07/08 08:23:16;;;;;;;12.40;3.47;;;;;;;28.97;37.88;101332.72;4992900;28;20418;-77
2023/07/08 08:25:41;;;;;;;12.90;3.42;;;;;;;28.86;38.11;101317.47;4994159;28;20532;-75
2023/07/08 08:28:07;;;;;;;8.23;3.00;;;;;;;29.23;37.67;101321.72;4993615;28;20386;-75
2023/07/08 08:30:32;;;;;;;9.20;2.70;;;;;;;29.08;37.21;101328.03;4994671;28;20758;-76
2023/07/08 08:32:58;;;;;;;12.77;2.97;;;;;;;29.06;37.86;101319.28;4994763;28;20413;-76
2023/07/08 08:35:23;;;;;;;11.68;3.28;;;;;;;29.33;37.35;101321.66;4993388;28;20732;-75
2023/07/08 08:37:49;;;;;;;11.57;3.07;;;;;;;29.22;37.62;101316.53;4993766;28;20386;-77
2023/07/08 08:40:17;;;;;;;12.50;3.03;;;;;;;29.27;37.17;101316.50;4993839;28;20380;-76
2023/07/08 08:42:53;;;;;;;11.77;3.15;;;;;;;29.52;37.45;101308.16;4976483;28;20409;-75
2023/07/08 08:45:20;;;;;;;17.25;3.60;;;;;;;29.73;36.84;101318.97;4993688;28;20458;-76
2023/07/08 08:47:54;;;;;;;13.73;3.30;;;;;;;29.91;36.59;101314.75;4993417;28;20887;-74
2023/07/08 08:50:30;;;;;;;12.40;3.20;;;;;;;30.30;36.36;101302.91;4992902;28;20882;-76
2023/07/08 08:52:56;;;;;;;10.00;2.97;;;;;;;30.24;36.42;101309.53;4993571;28;20386;-76
2023/07/08 08:55:24;;;;;;;11.03;2.87;;;;;;;29.38;37.03;101309.06;5008422;28;20421;-76
2023/07/08 08:58:14;;;;;;;8.52;2.50;;;;;;;28.76;38.19;101312.88;4992347;28;20527;-76
2023/07/08 09:01:11;;;;;;;8.52;2.42;;;;;;;29.12;37.26;101312.72;4978037;28;20390;-76
2023/07/08 09:03:45;;;;;;;12.35;3.00;;;;;;;29.44;37.41;101310.66;4973807;28;20424;-76
2023/07/08 09:06:19;;;;;;;12.63;3.03;;;;;;;29.94;36.63;101305.97;4981691;28;20420;-77
2023/07/08 09:08:46;;;;;;;9.07;2.85;;;;;;;29.98;36.25;101309.78;4988653;28;20386;-76
2023/07/08 09:11:22;;;;;;;10.25;2.55;;;;;;;29.57;37.09;101314.69;4981981;28;20777;-75
2023/07/08 09:13:49;;;;;;;8.05;2.80;;;;;;;29.10;37.93;101314.09;4993355;28;20848;-75
2023/07/08 09:16:20;;;;;;;7.95;2.53;;;;;;;28.97;38.32;101310.91;4993923;28;20396;-76
2023/07/08 09:19:06;;;;;;;12.35;2.90;;;;;;;28.60;38.47;101305.84;4993200;28;20436;-74
2023/07/08 09:21:45;;;;;;;12.80;3.30;;;;;;;28.86;38.45;101292.09;4992864;28;20386;-76
2023/07/08 09:24:18;;;;;;;9.43;2.40;;;;;;;28.98;37.76;101298.88;4994042;28;20814;-75
2023/07/08 09:26:46;;;;;;;9.32;2.63;;;;;;;28.63;38.03;101302.56;4993964;28;20382;-77
2023/07/08 09:29:12;;;;;;;10.90;2.70;;;;;;;28.92;38.00;101299.19;4975967;28;20485;-74
2023/07/08 09:31:42;;;;;;;10.75;2.83;;;;;;;29.01;37.73;101297.50;4993224;28;20528;-76
2023/07/08 09:34:23;;;;;;;8.87;2.60;;;;;;;29.09;37.34;101294.16;5007853;28;20702;-75
2023/07/08 09:36:51;;;;;;;10.63;2.77;;;;;;;29.16;37.33;101294.72;4993509;28;20948;-76
2023/07/08 09:39:20;;;;;;;11.32;2.83;;;;;;;29.31;37.10;101282.88;4992410;28;20460;-76
2023/07/08 09:41:47;;;;;;;11.38;3.15;;;;;;;29.18;37.38;101286.25;4992640;28;20390;-76
2023/07/08 09:44:28;;;;;;;11.50;2.95;;;;;;;29.67;36.49;101288.09;4992404;28;20484;-76
2023/07/08 09:46:54;;;;;;;8.95;2.70;;;;;;;29.51;36.08;101290.16;4992432;28;20386;-76
2023/07/08 09:49:22;;;;;;;8.40;2.28;;;;;;;29.55;35.85;101293.94;4992111;28;20389;-77
2023/07/08 09:51:51;;;;;;;9.27;2.78;;;;;;;29.73;35.86;101281.50;4979235;28;20444;-75
2023/07/08 09:54:19;;;;;;;10.98;2.97;;;;;;;30.07;35.53;101277.13;4992681;28;20386;-75
2023/07/08 09:57:00;;;;;;;11.65;2.88;;;;;;;29.86;35.53;101284.72;4992679;28;20381;-75
2023/07/08 09:59:36;;;;;;;10.85;2.75;;;;;;;29.12;35.95;101270.97;4992455;28;20382;-76
2023/07/08 10:02:17;;;;;;;14.40;3.60;;;;;;;29.72;36.38;101277.13;4992040;28;20859;-75
2023/07/08 10:04:43;;;;;;;11.48;3.75;;;;;;;30.04;36.75;101275.81;4973605;28;20458;-75
2023/07/08 10:07:16;;;;;;;11.67;3.80;;;;;;;29.97;36.85;101293.66;4975551;28;20828;-74
2023/07/08 10:09:42;;;;;;;12.30;3.30;;;;;;;29.82;36.42;101286.38;4972448;28;20794;-78
2023/07/08 10:12:13;;;;;;;13.20;3.10;;;;;;;29.81;36.71;101292.97;4972546;28;20924;-76
2023/07/08 10:14:52;;;;;;;12.90;3.40;;;;;;;29.63;36.65;101287.03;4992870;28;20465;-76
2023/07/08 10:17:20;;;;;;;10.68;3.22;;;;;;;29.77;36.09;101280.97;4965492;28;20495;-76
2023/07/08 10:19:46;;;;;;;12.35;3.28;;;;;;;29.68;36.75;101287.00;4972206;28;20861;-76
2023/07/08 10:22:37;;;;;;;10.07;2.93;;;;;;;29.51;36.99;101278.38;4972978;28;20392;-73
2023/07/08 10:25:27;;;;;;;14.13;3.85;;;;;;;29.74;36.73;101277.69;4972435;28;20400;-76
2023/07/08 10:27:57;;;;;;;10.77;3.88;;;;;;;30.05;36.57;101279.34;4972373;28;20891;-75
2023/07/08 10:30:29;;;;;;;16.70;4.03;;;;;;;30.00;35.96;101277.50;4973696;28;20387;-75
2023/07/08 10:33:14;;;;;;;13.38;3.70;;;;;;;30.20;36.01;101279.22;4991334;28;20442;-76
2023/07/08 10:36:27;;;;;;;12.73;3.55;;;;;;;30.19;35.34;101284.97;4991634;28;20774;-76
2023/07/08 10:38:55;;;;;;;13.10;3.00;;;;;;;29.71;35.54;101280.16;4932132;29;20399;-76
2023/07/08 10:41:35;;;;;;;12.10;3.40;;;;;;;30.05;35.38;101280.19;4932966;29;20394;-75
2023/07/08 10:44:19;;;;;;;13.00;3.25;;;;;;;30.24;34.74;101268.50;4962946;28;20429;-74
2023/07/08 10:47:06;;;;;;;12.98;3.30;;;;;;;30.36;34.74;101266.22;4991144;28;20508;-75
2023/07/08 10:49:52;;;;;;;8.70;2.80;;;;;;;30.04;34.87;101266.81;4980850;28;20392;-75
2023/07/08 10:52:31;;;;;;;9.73;2.72;;;;;;;30.05;35.02;101271.16;4990646;28;20398;-76
2023/07/08 10:55:14;;;;;;;10.23;3.10;;;;;;;30.07;35.60;101269.78;4989098;28;20397;-76
2023/07/08 10:58:04;;;;;;;7.93;2.63;;;;;;;29.92;35.42;101267.16;4990015;28;20389;-76
2023/07/08 11:01:15;;;;;;;11.43;3.33;;;;;;;30.16;35.12;101269.13;4989408;28;20401;-76
2023/07/08 11:04:25;;;;;;;15.43;3.42;;;;;;;30.30;34.85;101267.34;4974397;28;20452;-75
2023/07/08 11:07:05;;;;;;;9.48;2.60;;;;;;;30.20;34.23;101267.47;4985683;28;20504;-75
2023/07/08 11:09:45;;;;;;;13.05;3.00;;;;;;;30.33;34.47;101274.16;4972135;28;20492;-77
2023/07/08 11:12:25;;;;;;;12.68;3.03;;;;;;;30.39;34.42;101262.91;4988459;28;20409;-76
2023/07/08 11:15:15;;;;;;;15.20;3.07;;;;;;;30.39;34.44;101275.75;4988239;28;20398;-76
2023/07/08 11:18:04;;;;;;;11.70;2.77;;;;;;;30.08;34.73;101285.06;4987939;28;20772;-76
2023/07/08 11:21:18;;;;;;;11.65;2.90;;;;;;;30.69;33.40;101267.19;4987847;28;20405;-76
2023/07/08 11:23:50;;;;;;;12.82;2.53;;;;;;;30.21;34.29;101272.63;4976436;28;20425;-76
2023/07/08 11:26:18;;;;;;;11.15;2.95;;;;;;;30.22;34.88;101274.28;4990315;28;20492;-76
2023/07/08 11:28:43;;;;;;;11.00;2.60;;;;;;;30.30;34.16;101270.09;4986623;28;20390;-76
2023/07/08 11:31:11;;;;;;;10.73;3.00;;;;;;;30.03;35.19;101287.03;4984182;28;20409;-76